createdAt,value
2022-09-30T00:00:51.785Z,1
2022-09-30T00:02:47.085Z,1
2022-09-30T00:04:46.793Z,1
2022-09-30T00:06:53.362Z,1
2022-09-30T00:08:47.021Z,1
2022-09-30T00:10:47.271Z,1
2022-09-30T00:12:46.264Z,1
2022-09-30T00:14:46.635Z,1
2022-09-30T00:16:46.792Z,1
2022-09-30T00:18:46.872Z,1
2022-09-30T00:20:46.347Z,1
2022-09-30T00:22:46.657Z,1
2022-09-30T00:24:46.869Z,1
2022-09-30T00:26:46.869Z,1
2022-09-30T00:28:47.213Z,1
2022-09-30T00:30:46.499Z,1
2022-09-30T00:32:47.018Z,1
2022-09-30T00:34:46.268Z,1
2022-09-30T00:36:46.968Z,1
2022-09-30T00:38:46.460Z,1
2022-09-30T00:40:46.973Z,1
2022-09-30T00:42:46.658Z,1
2022-09-30T00:44:46.518Z,1
2022-09-30T00:46:46.852Z,1
2022-09-30T00:48:46.529Z,0.95
2022-09-30T00:50:46.427Z,0.95
2022-09-30T00:52:46.433Z,0.95
2022-09-30T00:54:47.045Z,0.95
2022-09-30T00:56:47.167Z,0.95
2022-09-30T00:58:47.217Z,0.95
2022-09-30T01:00:47.998Z,0.95
2022-09-30T01:02:47.268Z,0.95
2022-09-30T01:04:46.284Z,0.95
2022-09-30T01:06:46.729Z,0.95
2022-09-30T01:08:47.059Z,0.95
2022-09-30T01:10:47.134Z,0.95
2022-09-30T01:12:46.304Z,0.95
2022-09-30T01:14:46.622Z,0.95
2022-09-30T01:16:47.506Z,0.95
2022-09-30T01:18:46.579Z,0.95
2022-09-30T01:20:47.123Z,0.95
2022-09-30T01:22:53.230Z,0.95
2022-09-30T01:24:47.011Z,0.95
2022-09-30T01:26:46.558Z,0.95
2022-09-30T01:28:46.681Z,0.95
2022-09-30T01:30:46.849Z,0.95
2022-09-30T01:32:47.261Z,0.95
2022-09-30T01:34:47.084Z,0.95
2022-09-30T01:36:46.454Z,0.95
2022-09-30T01:38:47.090Z,0.95
2022-09-30T01:40:47.228Z,0.95
2022-09-30T01:42:46.806Z,0.89
2022-09-30T01:44:47.056Z,0.89
2022-09-30T01:46:46.700Z,0.89
2022-09-30T01:48:46.793Z,0.95
2022-09-30T01:50:47.246Z,0.95
2022-09-30T01:52:46.463Z,0.95
2022-09-30T01:54:47.068Z,0.89
2022-09-30T01:56:46.417Z,0.89
2022-09-30T01:58:46.550Z,0.89
2022-09-30T02:00:50.509Z,0.89
2022-09-30T02:02:47.429Z,0.89
2022-09-30T02:04:46.296Z,0.89
2022-09-30T02:06:46.284Z,0.89
2022-09-30T02:08:46.507Z,0.89
2022-09-30T02:10:47.087Z,0.89
2022-09-30T02:12:46.225Z,0.89
2022-09-30T02:14:47.046Z,0.89
2022-09-30T02:16:47.235Z,0.89
2022-09-30T02:18:46.304Z,0.89
2022-09-30T02:20:46.698Z,0.89
2022-09-30T02:22:46.310Z,0.89
2022-09-30T02:24:47.204Z,0.89
2022-09-30T02:26:46.622Z,0.89
2022-09-30T02:28:46.828Z,0.89
2022-09-30T02:30:46.940Z,0.89
2022-09-30T02:32:46.648Z,0.89
2022-09-30T02:34:46.957Z,0.89
2022-09-30T02:36:47.168Z,0.89
2022-09-30T02:38:46.980Z,0.89
2022-09-30T02:40:47.121Z,0.89
2022-09-30T02:42:47.203Z,0.89
2022-09-30T02:44:46.334Z,0.89
2022-09-30T02:46:46.893Z,0.89
2022-09-30T02:48:46.327Z,0.89
2022-09-30T02:50:46.871Z,0.89
2022-09-30T02:52:47.276Z,0.89
2022-09-30T02:54:47.021Z,0.89
2022-09-30T02:56:47.151Z,0.89
2022-09-30T02:58:46.453Z,0.89
2022-09-30T03:00:56.993Z,0.89
2022-09-30T03:02:46.904Z,0.89
2022-09-30T03:04:46.574Z,0.89
2022-09-30T03:06:46.904Z,0.89
2022-09-30T03:08:46.341Z,0.89
2022-09-30T03:10:46.803Z,0.89
2022-09-30T03:12:46.311Z,0.89
2022-09-30T03:14:47.234Z,0.89
2022-09-30T03:16:48.161Z,0.89
2022-09-30T03:18:46.221Z,0.89
2022-09-30T03:20:46.331Z,0.89
2022-09-30T03:22:46.594Z,0.89
2022-09-30T03:24:46.367Z,0.89
2022-09-30T03:26:46.470Z,0.89
2022-09-30T03:28:46.538Z,0.89
2022-09-30T03:30:47.395Z,0.89
2022-09-30T03:32:46.832Z,0.89
2022-09-30T03:34:46.371Z,0.89
2022-09-30T03:36:47.081Z,0.89
2022-09-30T03:38:46.324Z,0.89
2022-09-30T03:40:46.720Z,0.89
2022-09-30T03:42:47.210Z,0.89
2022-09-30T03:44:46.715Z,0.89
2022-09-30T03:46:47.398Z,0.89
2022-09-30T03:48:46.262Z,0.84
2022-09-30T03:50:46.882Z,0.84
2022-09-30T03:52:46.429Z,0.84
2022-09-30T03:54:46.355Z,0.89
2022-09-30T03:56:46.437Z,0.89
2022-09-30T03:58:46.394Z,0.89
2022-09-30T04:00:50.008Z,0.84
2022-09-30T04:02:47.276Z,0.84
2022-09-30T04:04:46.431Z,0.84
2022-09-30T04:06:46.976Z,0.84
2022-09-30T04:08:46.941Z,0.84
2022-09-30T04:10:46.634Z,0.84
2022-09-30T04:12:46.981Z,0.84
2022-09-30T04:14:46.929Z,0.84
2022-09-30T04:16:49.574Z,0.84
2022-09-30T04:18:46.254Z,0.84
2022-09-30T04:20:46.398Z,0.84
2022-09-30T04:22:49.169Z,0.84
2022-09-30T04:24:46.909Z,0.84
2022-09-30T04:26:47.052Z,0.84
2022-09-30T04:28:46.214Z,0.84
2022-09-30T04:30:51.560Z,0.84
2022-09-30T04:32:46.436Z,0.84
2022-09-30T04:34:46.636Z,0.84
2022-09-30T04:36:47.035Z,0.84
2022-09-30T04:38:47.014Z,0.84
2022-09-30T04:40:47.001Z,0.84
2022-09-30T04:42:47.138Z,0.84
2022-09-30T04:44:46.845Z,0.84
2022-09-30T04:46:47.478Z,0.84
2022-09-30T04:48:47.038Z,0.84
2022-09-30T04:50:46.661Z,0.84
2022-09-30T04:52:46.669Z,0.84
2022-09-30T04:54:46.915Z,0.84
2022-09-30T04:56:46.978Z,0.84
2022-09-30T04:58:48.512Z,0.84
2022-09-30T05:00:50.137Z,0.84
2022-09-30T05:02:46.832Z,0.84
2022-09-30T05:04:46.278Z,0.84
2022-09-30T05:06:47.388Z,0.84
2022-09-30T05:08:46.826Z,0.84
2022-09-30T05:10:46.886Z,0.84
2022-09-30T05:12:46.461Z,0.84
2022-09-30T05:14:46.477Z,0.84
2022-09-30T05:16:46.962Z,0.84
2022-09-30T05:18:46.648Z,0.84
2022-09-30T05:20:46.401Z,0.84
2022-09-30T05:22:46.554Z,0.84
2022-09-30T05:24:46.846Z,0.84
2022-09-30T05:26:47.093Z,0.84
2022-09-30T05:28:47.015Z,0.84
2022-09-30T05:30:46.535Z,0.84
2022-09-30T05:32:46.982Z,0.84
2022-09-30T05:34:46.430Z,0.84
2022-09-30T05:36:46.870Z,0.84
2022-09-30T05:38:46.304Z,0.84
2022-09-30T05:40:46.576Z,0.84
2022-09-30T05:42:47.979Z,0.84
2022-09-30T05:44:46.905Z,0.84
2022-09-30T05:46:46.827Z,0.84
2022-09-30T05:48:46.464Z,39.07
2022-09-30T05:50:46.852Z,9.12
2022-09-30T05:52:47.127Z,9.12
2022-09-30T05:54:46.861Z,1.34
2022-09-30T05:56:46.633Z,1.28
2022-09-30T05:58:46.924Z,1.28
2022-09-30T06:00:49.079Z,1
2022-09-30T06:02:46.982Z,1
2022-09-30T06:04:46.841Z,1
2022-09-30T06:06:47.272Z,0.95
2022-09-30T06:08:46.781Z,0.95
2022-09-30T06:10:46.516Z,0.95
2022-09-30T06:12:46.622Z,0.95
2022-09-30T06:14:46.319Z,0.95
2022-09-30T06:16:47.730Z,0.95
2022-09-30T06:18:51.480Z,0.95
2022-09-30T06:20:46.695Z,0.95
2022-09-30T06:22:46.637Z,0.95
2022-09-30T06:24:46.595Z,0.95
2022-09-30T06:26:46.959Z,0.95
2022-09-30T06:28:47.090Z,0.95
2022-09-30T06:30:47.164Z,0.95
2022-09-30T06:32:46.902Z,0.95
2022-09-30T06:34:46.745Z,0.95
2022-09-30T06:36:46.669Z,0.95
2022-09-30T06:38:46.765Z,0.95
2022-09-30T06:40:46.881Z,0.95
2022-09-30T06:42:47.095Z,0.95
2022-09-30T06:45:04.254Z,0.95
2022-09-30T06:47:27.123Z,0.95
2022-09-30T06:49:07.579Z,0.95
2022-09-30T06:51:09.934Z,0.95
2022-09-30T06:52:46.945Z,0.95
2022-09-30T06:54:46.365Z,0.95
2022-09-30T06:56:46.822Z,0.95
2022-09-30T06:58:46.227Z,0.95
2022-09-30T07:00:52.256Z,0.95
2022-09-30T07:02:47.272Z,0.95
2022-09-30T07:04:46.920Z,0.95
2022-09-30T07:06:47.143Z,0.95
2022-09-30T07:08:46.318Z,0.95
2022-09-30T07:10:46.932Z,0.95
2022-09-30T07:12:46.864Z,0.95
2022-09-30T07:14:46.174Z,8.36
2022-09-30T07:16:47.100Z,8.36
2022-09-30T07:18:46.936Z,8.36
2022-09-30T07:20:47.193Z,8.36
2022-09-30T07:22:46.493Z,8.36
2022-09-30T07:24:46.892Z,8.36
2022-09-30T07:26:46.679Z,8.36
2022-09-30T07:28:47.162Z,8.36
2022-09-30T07:31:27.384Z,8.36
2022-09-30T07:32:47.667Z,8.36
2022-09-30T07:34:46.193Z,8.36
2022-09-30T07:36:52.325Z,8.36
2022-09-30T07:38:46.336Z,8.36
2022-09-30T07:40:46.420Z,8.36
2022-09-30T07:42:46.341Z,8.36
2022-09-30T07:44:46.447Z,8.36
2022-09-30T07:46:46.667Z,8.36
2022-09-30T07:48:47.244Z,8.36
2022-09-30T07:50:46.688Z,8.36
2022-09-30T07:52:46.517Z,8.36
2022-09-30T07:54:53.119Z,8.36
2022-09-30T07:57:19.753Z,8.36
2022-09-30T07:58:46.739Z,8.36
2022-09-30T08:01:16.913Z,8.36
2022-09-30T08:02:47.110Z,8.36
2022-09-30T08:04:50.491Z,8.36
2022-09-30T08:06:47.102Z,8.36
2022-09-30T08:08:46.323Z,8.36
2022-09-30T08:10:46.494Z,8.36
2022-09-30T08:12:47.083Z,8.36
2022-09-30T08:14:46.993Z,8.36
2022-09-30T08:16:47.071Z,8.36
2022-09-30T08:18:46.605Z,8.36
2022-09-30T08:20:49.478Z,10.1
2022-09-30T08:22:46.647Z,10.1
2022-09-30T08:24:46.569Z,10.1
2022-09-30T08:26:47.031Z,1.28
2022-09-30T08:28:46.569Z,1.28
2022-09-30T08:30:49.969Z,1.28
2022-09-30T08:32:47.324Z,0.95
2022-09-30T08:34:47.256Z,0.95
2022-09-30T08:36:46.913Z,0.95
2022-09-30T08:38:46.218Z,0.84
2022-09-30T08:40:46.856Z,0.84
2022-09-30T08:43:19.323Z,0.84
2022-09-30T08:44:47.379Z,0.84
2022-09-30T08:46:46.629Z,0.84
2022-09-30T08:48:47.052Z,0.84
2022-09-30T08:50:46.323Z,0.84
2022-09-30T08:53:11.151Z,0.84
2022-09-30T08:54:51.469Z,0.84
2022-09-30T08:56:46.861Z,0.79
2022-09-30T08:58:46.991Z,0.79
2022-09-30T09:00:49.697Z,0.79
2022-09-30T09:02:51.542Z,0.79
2022-09-30T09:04:47.601Z,0.79
2022-09-30T09:06:46.166Z,0.79
2022-09-30T09:08:46.537Z,0.79
2022-09-30T09:10:47.007Z,0.79
2022-09-30T09:12:47.130Z,0.79
2022-09-30T09:14:46.434Z,0.79
2022-09-30T09:16:47.607Z,0.79
2022-09-30T09:19:07.959Z,0.79
2022-09-30T09:20:46.789Z,0.79
2022-09-30T09:22:47.633Z,0.79
2022-09-30T09:24:47.031Z,0.79
2022-09-30T09:26:46.377Z,0.74
2022-09-30T09:28:50.321Z,0.74
2022-09-30T09:30:46.467Z,0.74
2022-09-30T09:32:47.257Z,0.79
2022-09-30T09:34:51.485Z,0.79
2022-09-30T09:36:46.303Z,0.79
2022-09-30T09:38:46.995Z,0.79
2022-09-30T09:40:49.594Z,0.79
2022-09-30T09:42:47.068Z,0.79
2022-09-30T09:44:46.442Z,0.79
2022-09-30T09:46:47.160Z,0.79
2022-09-30T09:48:46.684Z,0.79
2022-09-30T09:50:46.592Z,0.79
2022-09-30T09:52:46.683Z,0.79
2022-09-30T09:54:47.067Z,0.79
2022-09-30T09:56:52.303Z,0.79
2022-09-30T09:58:46.501Z,0.79
2022-09-30T10:00:49.955Z,0.79
2022-09-30T10:02:47.078Z,0.79
2022-09-30T10:04:46.987Z,0.79
2022-09-30T10:06:46.499Z,0.79
2022-09-30T10:08:46.889Z,0.79
2022-09-30T10:10:47.227Z,0.79
2022-09-30T10:12:46.428Z,0.79
2022-09-30T10:14:47.527Z,0.79
2022-09-30T10:16:46.437Z,0.79
2022-09-30T10:18:46.830Z,0.79
2022-09-30T10:22:46.935Z,0.79
2022-09-30T10:24:46.474Z,0.79
2022-09-30T10:26:48.907Z,0.79
2022-09-30T10:28:47.368Z,0.79
2022-09-30T10:30:46.332Z,0.79
2022-09-30T10:32:46.583Z,0.79
2022-09-30T10:34:46.959Z,0.79
2022-09-30T10:36:46.455Z,0.79
2022-09-30T10:38:46.875Z,0.79
2022-09-30T10:40:46.918Z,0.79
2022-09-30T10:42:49.650Z,0.79
2022-09-30T10:44:46.258Z,0.79
2022-09-30T10:47:11.019Z,0.79
2022-09-30T10:48:47.025Z,0.79
2022-09-30T10:50:46.671Z,0.79
2022-09-30T10:52:46.768Z,0.79
2022-09-30T10:54:47.179Z,0.79
2022-09-30T10:56:47.192Z,0.79
2022-09-30T10:58:47.372Z,0.79
2022-09-30T11:00:48.982Z,0.79
2022-09-30T11:02:53.286Z,0.79
2022-09-30T11:04:47.125Z,0.79
2022-09-30T11:06:47.830Z,0.79
2022-09-30T11:08:46.803Z,0.79
2022-09-30T11:10:48.017Z,0.79
2022-09-30T11:12:46.909Z,0.79
2022-09-30T11:14:46.503Z,0.79
2022-09-30T11:16:47.133Z,0.79
2022-09-30T11:18:46.800Z,0.79
2022-09-30T11:20:47.429Z,0.79
2022-09-30T11:22:46.386Z,0.79
2022-09-30T11:24:46.943Z,0.79
2022-09-30T11:26:46.993Z,0.79
2022-09-30T11:28:47.109Z,0.79
2022-09-30T11:30:47.397Z,0.79
2022-09-30T11:32:46.927Z,0.79
2022-09-30T11:34:46.822Z,0.79
2022-09-30T11:36:46.299Z,0.79
2022-09-30T11:38:46.536Z,0.79
2022-09-30T11:40:46.805Z,0.79
2022-09-30T11:42:46.649Z,0.79
2022-09-30T11:44:46.272Z,0.79
2022-09-30T11:46:47.049Z,0.79
2022-09-30T11:48:46.229Z,0.79
2022-09-30T11:50:46.535Z,0.79
2022-09-30T11:52:46.834Z,0.79
2022-09-30T11:54:46.966Z,0.79
2022-09-30T11:56:46.541Z,0.79
2022-09-30T11:59:16.040Z,0.79
2022-09-30T12:00:50.377Z,0.79
2022-09-30T12:02:47.236Z,0.79
2022-09-30T12:04:47.036Z,0.79
2022-09-30T12:06:47.178Z,0.79
2022-09-30T12:08:46.309Z,0.79
2022-09-30T12:10:47.004Z,0.79
2022-09-30T12:12:50.603Z,0.79
2022-09-30T12:14:46.941Z,0.79
2022-09-30T12:16:46.957Z,0.79
2022-09-30T12:18:46.622Z,0.79
2022-09-30T12:20:46.885Z,0.79
2022-09-30T12:22:47.181Z,0.79
2022-09-30T12:24:46.625Z,0.79
2022-09-30T12:26:46.252Z,0.79
2022-09-30T12:28:47.036Z,0.79
2022-09-30T12:30:46.787Z,0.79
2022-09-30T12:32:46.827Z,0.79
2022-09-30T12:34:46.555Z,0.79
2022-09-30T12:36:46.371Z,0.79
2022-09-30T12:38:46.688Z,0.79
2022-09-30T12:40:51.565Z,0.79
2022-09-30T12:42:47.131Z,0.79
2022-09-30T12:44:46.294Z,0.79
2022-09-30T12:46:46.916Z,0.79
2022-09-30T12:48:51.425Z,0.79
2022-09-30T12:50:46.598Z,0.79
2022-09-30T12:52:46.805Z,0.79
2022-09-30T12:54:47.224Z,0.79
2022-09-30T12:56:47.002Z,0.79
2022-09-30T12:58:53.135Z,0.79
2022-09-30T13:00:49.557Z,0.79
2022-09-30T13:02:46.991Z,0.79
2022-09-30T13:04:46.925Z,0.79
2022-09-30T13:06:46.696Z,0.79
2022-09-30T13:08:48.065Z,0.79
2022-09-30T13:10:46.542Z,0.79
2022-09-30T13:12:46.978Z,0.79
2022-09-30T13:14:48.879Z,0.79
2022-09-30T13:16:52.505Z,0.79
2022-09-30T13:18:46.869Z,0.79
2022-09-30T13:20:47.017Z,0.79
2022-09-30T13:22:46.870Z,0.79
2022-09-30T13:24:46.511Z,0.79
2022-09-30T13:26:46.581Z,0.79
2022-09-30T13:28:46.581Z,0.79
2022-09-30T13:30:46.737Z,0.79
2022-09-30T13:32:46.667Z,0.79
2022-09-30T13:34:47.102Z,0.79
2022-09-30T13:36:46.489Z,0.79
2022-09-30T13:38:46.974Z,0.79
2022-09-30T13:41:14.690Z,0.79
2022-09-30T13:42:46.517Z,0.79
2022-09-30T13:44:46.865Z,0.79
2022-09-30T13:46:47.031Z,0.79
2022-09-30T13:48:47.158Z,0.79
2022-09-30T13:50:46.923Z,0.79
2022-09-30T13:52:50.452Z,0.79
2022-09-30T13:54:46.227Z,0.79
2022-09-30T13:56:46.508Z,0.79
2022-09-30T13:58:46.441Z,0.79
2022-09-30T14:00:49.803Z,0.79
2022-09-30T14:02:46.852Z,0.79
2022-09-30T14:04:46.796Z,0.79
2022-09-30T14:06:47.049Z,0.79
2022-09-30T14:08:46.885Z,0.79
2022-09-30T14:10:54.187Z,0.79
2022-09-30T14:12:46.304Z,0.79
2022-09-30T14:14:46.750Z,0.79
2022-09-30T14:16:46.729Z,0.79
2022-09-30T14:18:56.095Z,0.79
2022-09-30T14:20:47.104Z,0.79
2022-09-30T14:22:47.039Z,0.79
2022-09-30T14:24:49.420Z,0.79
2022-09-30T14:26:46.877Z,0.79
2022-09-30T14:28:47.395Z,0.79
2022-09-30T14:30:50.434Z,0.79
2022-09-30T14:32:47.274Z,0.79
2022-09-30T14:34:46.359Z,0.79
2022-09-30T14:36:46.621Z,0.79
2022-09-30T14:38:46.800Z,0.79
2022-09-30T14:40:46.671Z,0.79
2022-09-30T14:42:47.018Z,0.79
2022-09-30T14:44:46.228Z,0.84
2022-09-30T14:46:47.559Z,0.84
2022-09-30T14:48:46.865Z,0.84
2022-09-30T14:50:46.354Z,0.79
2022-09-30T14:52:47.151Z,0.79
2022-09-30T14:54:46.280Z,0.79
2022-09-30T14:56:47.508Z,0.79
2022-09-30T14:58:47.267Z,0.79
2022-09-30T15:00:46.682Z,0.79
2022-09-30T15:02:46.602Z,0.79
2022-09-30T15:04:47.349Z,0.79
2022-09-30T15:06:47.187Z,0.79
2022-09-30T15:08:46.295Z,0.79
2022-09-30T15:10:46.884Z,0.79
2022-09-30T15:12:46.496Z,0.79
2022-09-30T15:14:47.223Z,0.79
2022-09-30T15:16:47.650Z,0.79
2022-09-30T15:18:46.929Z,0.79
2022-09-30T15:20:46.812Z,0.79
2022-09-30T15:22:47.487Z,0.79
2022-09-30T15:24:47.244Z,0.79
2022-09-30T15:26:47.154Z,0.79
2022-09-30T15:28:47.176Z,0.79
2022-09-30T15:30:46.341Z,0.79
2022-09-30T15:32:48.041Z,0.79
2022-09-30T15:34:47.209Z,0.79
2022-09-30T15:36:47.036Z,0.79
2022-09-30T15:38:46.624Z,0.79
2022-09-30T15:40:46.733Z,0.79
2022-09-30T15:42:47.044Z,0.79
2022-09-30T15:44:46.207Z,0.79
2022-09-30T15:46:48.394Z,0.79
2022-09-30T15:48:46.800Z,0.79
2022-09-30T15:50:47.162Z,0.79
2022-09-30T15:52:46.896Z,0.79
2022-09-30T15:54:46.701Z,0.79
2022-09-30T15:56:47.404Z,0.79
2022-09-30T15:58:47.137Z,0.79
2022-09-30T16:00:51.100Z,0.79
2022-09-30T16:02:46.905Z,0.79
2022-09-30T16:04:46.996Z,0.79
2022-09-30T16:06:47.760Z,0.79
2022-09-30T16:08:46.480Z,0.79
2022-09-30T16:10:46.540Z,0.79
2022-09-30T16:12:47.024Z,0.79
2022-09-30T16:14:47.188Z,0.79
2022-09-30T16:16:47.671Z,0.79
2022-09-30T16:18:46.768Z,0.79
2022-09-30T16:20:46.549Z,0.79
2022-09-30T16:22:47.011Z,0.79
2022-09-30T16:24:46.573Z,0.79
2022-09-30T16:26:47.154Z,0.79
2022-09-30T16:28:49.511Z,0.79
2022-09-30T16:30:46.890Z,0.79
2022-09-30T16:32:46.413Z,0.79
2022-09-30T16:34:46.733Z,0.79
2022-09-30T16:36:46.986Z,0.79
2022-09-30T16:38:46.689Z,0.79
2022-09-30T16:40:47.100Z,0.79
2022-09-30T16:42:46.470Z,0.79
2022-09-30T16:44:47.031Z,0.79
2022-09-30T16:46:47.425Z,0.79
2022-09-30T16:48:46.757Z,0.79
2022-09-30T16:50:47.691Z,0.79
2022-09-30T16:52:46.527Z,0.79
2022-09-30T16:54:47.263Z,0.79
2022-09-30T16:56:47.058Z,0.79
2022-09-30T16:58:46.546Z,0.79
2022-09-30T17:00:49.937Z,0.79
2022-09-30T17:02:47.713Z,0.79
2022-09-30T17:04:51.057Z,0.79
2022-09-30T17:06:47.341Z,0.79
2022-09-30T17:08:46.963Z,0.79
2022-09-30T17:10:48.310Z,0.79
2022-09-30T17:12:46.512Z,0.79
2022-09-30T17:14:47.101Z,0.79
2022-09-30T17:16:47.713Z,0.79
2022-09-30T17:18:47.144Z,0.79
2022-09-30T17:20:47.311Z,0.79
2022-09-30T17:22:46.928Z,0.79
2022-09-30T17:24:46.695Z,0.79
2022-09-30T17:26:47.082Z,0.79
2022-09-30T17:28:47.317Z,0.79
2022-09-30T17:30:46.340Z,0.79
2022-09-30T17:32:46.711Z,0.79
2022-09-30T17:34:46.769Z,0.79
2022-09-30T17:36:46.692Z,0.79
2022-09-30T17:38:47.121Z,0.79
2022-09-30T17:40:46.444Z,0.79
2022-09-30T17:42:47.072Z,0.79
2022-09-30T17:44:47.173Z,0.79
2022-09-30T17:46:46.757Z,0.79
2022-09-30T17:48:46.784Z,0.79
2022-09-30T17:50:46.533Z,0.79
2022-09-30T17:52:46.655Z,0.79
2022-09-30T17:54:51.863Z,0.79
2022-09-30T17:56:46.658Z,0.79
2022-09-30T17:58:46.909Z,0.79
2022-09-30T18:00:50.006Z,0.79
2022-09-30T18:02:47.273Z,0.79
2022-09-30T18:04:46.724Z,0.79
2022-09-30T18:06:46.578Z,0.79
2022-09-30T18:08:46.907Z,0.79
2022-09-30T18:10:47.247Z,0.79
2022-09-30T18:12:46.228Z,0.79
2022-09-30T18:14:46.573Z,0.84
2022-09-30T18:16:47.549Z,0.84
2022-09-30T18:18:47.188Z,0.84
2022-09-30T18:20:48.307Z,0.84
2022-09-30T18:22:46.931Z,0.84
2022-09-30T18:24:46.394Z,0.84
2022-09-30T18:26:47.492Z,0.84
2022-09-30T18:28:46.733Z,0.84
2022-09-30T18:30:46.850Z,0.84
2022-09-30T18:32:47.033Z,0.79
2022-09-30T18:34:46.662Z,0.79
2022-09-30T18:36:46.368Z,0.79
2022-09-30T18:38:46.420Z,0.79
2022-09-30T18:40:47.256Z,0.79
2022-09-30T18:42:46.922Z,0.79
2022-09-30T18:44:46.646Z,0.79
2022-09-30T18:46:46.743Z,0.79
2022-09-30T18:48:47.163Z,0.79
2022-09-30T18:50:46.551Z,0.79
2022-09-30T18:52:47.027Z,0.79
2022-09-30T18:54:46.593Z,0.79
2022-09-30T18:56:46.825Z,0.79
2022-09-30T18:58:46.885Z,0.79
2022-09-30T19:00:49.356Z,0.79
2022-09-30T19:02:46.896Z,0.79
2022-09-30T19:04:46.453Z,0.79
2022-09-30T19:06:46.668Z,0.79
2022-09-30T19:08:46.782Z,0.79
2022-09-30T19:10:46.547Z,0.79
2022-09-30T19:12:46.652Z,0.79
2022-09-30T19:14:46.532Z,0.79
2022-09-30T19:16:50.343Z,0.79
2022-09-30T19:18:46.411Z,0.79
2022-09-30T19:20:46.402Z,0.79
2022-09-30T19:22:46.607Z,0.79
2022-09-30T19:24:50.146Z,0.79
2022-09-30T19:26:46.398Z,0.79
2022-09-30T19:28:46.807Z,0.79
2022-09-30T19:30:46.915Z,0.79
2022-09-30T19:32:46.718Z,0.79
2022-09-30T19:35:10.743Z,0.79
2022-09-30T19:37:23.749Z,0.79
2022-09-30T19:39:09.521Z,0.79
2022-09-30T19:41:00.829Z,0.79
2022-09-30T19:42:49.236Z,0.79
2022-09-30T19:47:02.644Z,0.79
2022-09-30T19:47:56.772Z,0.79
2022-09-30T19:53:02.278Z,0.79
2022-09-30T19:55:12.314Z,0.79
2022-09-30T20:05:18.852Z,0.79
2022-09-30T20:05:34.928Z,0.79
2022-09-30T20:14:52.855Z,0.79
2022-09-30T20:15:08.349Z,0.79
2022-09-30T20:16:47.212Z,0.79
2022-09-30T20:18:46.341Z,0.79
2022-09-30T20:20:46.866Z,0.79
2022-09-30T20:22:51.730Z,0.79
2022-09-30T20:24:46.391Z,0.79
2022-09-30T20:26:46.564Z,0.79
2022-09-30T20:28:47.168Z,0.79
2022-09-30T20:30:47.136Z,0.79
2022-09-30T20:32:46.430Z,0.79
2022-09-30T20:34:50.173Z,0.79
2022-09-30T20:36:46.999Z,0.79
2022-09-30T20:38:46.471Z,0.79
2022-09-30T20:40:47.124Z,0.79
2022-09-30T20:42:46.638Z,0.79
2022-09-30T20:44:47.128Z,0.79
2022-09-30T20:46:47.037Z,0.79
2022-09-30T20:48:46.576Z,0.79
2022-09-30T20:50:47.039Z,0.79
2022-09-30T20:52:46.977Z,0.79
2022-09-30T20:54:46.971Z,0.79
2022-09-30T20:57:16.861Z,0.79
2022-09-30T20:58:46.941Z,0.79
2022-09-30T21:00:50.806Z,0.79
2022-09-30T21:02:46.805Z,0.79
2022-09-30T21:04:50.676Z,0.79
2022-09-30T21:06:46.784Z,0.79
2022-09-30T21:08:46.735Z,0.79
2022-09-30T21:10:46.495Z,0.79
2022-09-30T21:12:48.401Z,0.79
2022-09-30T21:14:46.303Z,0.79
2022-09-30T21:16:47.036Z,0.79
2022-09-30T21:18:46.946Z,0.79
2022-09-30T21:20:46.557Z,0.79
2022-09-30T21:22:46.387Z,0.79
2022-09-30T21:24:46.763Z,0.79
2022-09-30T21:26:46.446Z,0.79
2022-09-30T21:28:49.106Z,0.79
2022-09-30T21:30:46.935Z,0.79
2022-09-30T21:32:46.453Z,0.79
2022-09-30T21:34:47.105Z,0.79
2022-09-30T21:36:46.753Z,0.79
2022-09-30T21:38:46.447Z,0.79
2022-09-30T21:40:46.931Z,0.79
2022-09-30T21:42:46.792Z,0.79
2022-09-30T21:44:47.121Z,0.79
2022-09-30T21:46:48.464Z,0.79
2022-09-30T21:48:46.640Z,0.79
2022-09-30T21:50:46.810Z,0.79
2022-09-30T21:52:46.818Z,0.79
2022-09-30T21:54:46.800Z,0.79
2022-09-30T21:56:46.862Z,0.79
2022-09-30T21:58:46.931Z,0.79
2022-09-30T22:00:50.038Z,0.79
2022-09-30T22:02:47.354Z,0.79
2022-09-30T22:04:46.556Z,0.79
2022-09-30T22:06:46.242Z,0.79
2022-09-30T22:08:46.973Z,0.79
2022-09-30T22:10:47.167Z,0.79
2022-09-30T22:12:46.758Z,0.79
2022-09-30T22:14:46.397Z,0.84
2022-09-30T22:16:47.236Z,0.84
2022-09-30T22:18:47.011Z,0.84
2022-09-30T22:20:46.992Z,0.84
2022-09-30T22:22:46.759Z,0.84
2022-09-30T22:24:46.336Z,0.84
2022-09-30T22:26:47.184Z,0.84
2022-09-30T22:28:46.895Z,0.84
2022-09-30T22:30:46.254Z,0.84
2022-09-30T22:32:47.520Z,0.84
2022-09-30T22:34:47.072Z,0.84
2022-09-30T22:36:47.036Z,0.84
2022-09-30T22:38:46.838Z,0.84
2022-09-30T22:40:46.481Z,0.84
2022-09-30T22:42:47.110Z,0.84
2022-09-30T22:44:46.518Z,0.84
2022-09-30T22:46:46.672Z,0.84
2022-09-30T22:48:46.443Z,0.84
2022-09-30T22:50:47.112Z,0.84
2022-09-30T22:52:47.209Z,0.84
2022-09-30T22:54:47.217Z,0.84
2022-09-30T22:56:47.241Z,0.84
2022-09-30T22:58:46.723Z,0.84
2022-09-30T23:00:49.542Z,0.84
2022-09-30T23:02:47.061Z,0.84
2022-09-30T23:04:47.253Z,0.84
2022-09-30T23:06:46.507Z,0.84
2022-09-30T23:08:46.785Z,0.84
2022-09-30T23:10:46.899Z,0.84
2022-09-30T23:12:47.330Z,0.84
2022-09-30T23:14:46.668Z,0.84
2022-09-30T23:16:47.195Z,0.84
2022-09-30T23:18:46.980Z,0.84
2022-09-30T23:20:47.185Z,0.84
2022-09-30T23:22:46.357Z,0.84
2022-09-30T23:24:47.016Z,0.84
2022-09-30T23:26:46.785Z,0.84
2022-09-30T23:28:46.942Z,0.84
2022-09-30T23:30:46.810Z,0.84
2022-09-30T23:32:46.673Z,0.84
2022-09-30T23:34:46.589Z,0.84
2022-09-30T23:36:46.566Z,0.84
2022-09-30T23:38:47.057Z,0.84
2022-09-30T23:40:46.633Z,0.84
2022-09-30T23:42:46.206Z,0.84
2022-09-30T23:44:46.530Z,0.84
2022-09-30T23:46:47.037Z,0.84
2022-09-30T23:48:46.668Z,0.84
2022-09-30T23:50:46.679Z,9.03
2022-09-30T23:52:47.216Z,9.03
2022-09-30T23:54:46.297Z,9.03
2022-09-30T23:56:46.874Z,1.4
2022-09-30T23:58:46.922Z,1.4
